createdAt,value
2022-11-22T00:00:42.334Z,29.67
2022-11-22T00:03:11.784Z,29.82
2022-11-22T00:05:38.375Z,29.28
2022-11-22T00:08:05.494Z,29.53
2022-11-22T00:10:32.468Z,30.51
2022-11-22T00:12:59.106Z,30.26
2022-11-22T00:15:25.779Z,30.30
2022-11-22T00:17:52.347Z,31.27
2022-11-22T00:20:19.068Z,31.66
2022-11-22T00:22:45.663Z,32.01
2022-11-22T00:25:13.278Z,31.17
2022-11-22T00:27:40.009Z,29.67
2022-11-22T00:30:07.800Z,28.81
2022-11-22T00:32:34.627Z,28.71
2022-11-22T00:35:01.268Z,27.59
2022-11-22T00:37:27.966Z,27.34
2022-11-22T00:39:54.505Z,27.56
2022-11-22T00:42:21.118Z,26.64
2022-11-22T00:44:47.737Z,26.41
2022-11-22T00:47:14.328Z,26.96
2022-11-22T00:49:41.001Z,26.23
2022-11-22T00:52:07.676Z,25.82
2022-11-22T00:54:34.233Z,25.69
2022-11-22T00:57:00.867Z,25.41
2022-11-22T00:59:27.672Z,25.88
2022-11-22T01:01:55.778Z,25.84
2022-11-22T01:04:24.869Z,25.27
2022-11-22T01:06:51.492Z,25.30
2022-11-22T01:09:22.849Z,25.71
2022-11-22T01:11:50.123Z,25.38
2022-11-22T01:14:17.338Z,26.14
2022-11-22T01:16:44.205Z,25.74
2022-11-22T01:19:11.459Z,25.78
2022-11-22T01:21:38.261Z,26.54
2022-11-22T01:24:05.046Z,26.13
2022-11-22T01:26:33.013Z,26.39
2022-11-22T01:28:59.652Z,26.16
2022-11-22T01:31:26.291Z,26.96
2022-11-22T01:33:52.958Z,26.02
2022-11-22T01:36:19.575Z,24.93
2022-11-22T01:38:47.162Z,24.30
2022-11-22T01:41:13.997Z,23.97
2022-11-22T01:43:40.609Z,23.61
2022-11-22T01:46:19.033Z,23.64
2022-11-22T01:49:05.502Z,23.83
2022-11-22T01:51:38.845Z,23.78
2022-11-22T01:54:09.206Z,22.64
2022-11-22T01:56:36.310Z,21.92
2022-11-22T01:59:06.704Z,21.80
2022-11-22T02:01:33.850Z,21.78
2022-11-22T02:04:04.014Z,21.52
2022-11-22T02:06:46.290Z,21.02
2022-11-22T02:09:13.358Z,21.51
2022-11-22T02:11:50.485Z,21.91
2022-11-22T02:14:19.596Z,21.61
2022-11-22T02:16:48.085Z,22.08
2022-11-22T02:19:40.402Z,22.04
2022-11-22T02:22:18.879Z,22.33
2022-11-22T02:25:08.777Z,22.11
2022-11-22T02:27:35.332Z,22.00
2022-11-22T02:30:01.987Z,20.98
2022-11-22T02:32:28.626Z,20.57
2022-11-22T02:34:55.226Z,19.91
2022-11-22T02:37:27.941Z,19.65
2022-11-22T02:39:58.117Z,19.81
2022-11-22T02:42:26.376Z,19.13
2022-11-22T02:44:52.976Z,19.03
2022-11-22T02:47:19.571Z,18.97
2022-11-22T02:49:46.214Z,17.75
2022-11-22T02:52:19.217Z,18.14
2022-11-22T02:54:46.140Z,17.41
2022-11-22T02:57:13.270Z,17.78
2022-11-22T02:59:39.871Z,18.31
2022-11-22T03:02:06.511Z,18.06
2022-11-22T03:04:33.105Z,17.43
2022-11-22T03:07:00.911Z,17.28
2022-11-22T03:09:27.977Z,17.73
2022-11-22T03:11:54.795Z,17.02
2022-11-22T03:14:21.811Z,17.13
2022-11-22T03:16:48.413Z,16.84
2022-11-22T03:19:17.352Z,16.86
2022-11-22T03:21:44.339Z,17.17
2022-11-22T03:24:11.271Z,17.47
2022-11-22T03:26:38.300Z,17.47
2022-11-22T03:29:05.056Z,17.33
2022-11-22T03:31:31.844Z,17.24
2022-11-22T03:33:58.480Z,17.33
2022-11-22T03:36:25.161Z,17.26
2022-11-22T03:38:51.821Z,17.23
2022-11-22T03:41:18.473Z,17.56
2022-11-22T03:43:45.060Z,17.75
2022-11-22T03:46:16.219Z,18.17
2022-11-22T03:48:42.750Z,18.65
2022-11-22T03:51:09.340Z,20.00
2022-11-22T03:53:35.930Z,21.35
2022-11-22T03:56:02.544Z,22.18
2022-11-22T03:58:29.224Z,23.39
2022-11-22T04:00:59.470Z,24.48
2022-11-22T04:03:26.431Z,25.09
2022-11-22T04:05:53.005Z,26.23
2022-11-22T04:08:19.691Z,27.57
2022-11-22T04:10:49.057Z,29.13
2022-11-22T04:13:15.983Z,30.20
2022-11-22T04:15:42.540Z,31.18
2022-11-22T04:18:10.785Z,33.30
2022-11-22T04:20:56.649Z,32.63
2022-11-22T04:23:29.337Z,34.17
2022-11-22T04:25:58.966Z,34.99
2022-11-22T04:29:08.278Z,36.38
2022-11-22T04:31:30.944Z,37.99
2022-11-22T04:33:57.511Z,40.28
2022-11-22T04:36:24.183Z,41.71
2022-11-22T04:38:51.425Z,43.54
2022-11-22T04:41:18.151Z,45.30
2022-11-22T04:44:03.364Z,46.47
2022-11-22T04:46:31.450Z,48.03
2022-11-22T04:48:58.091Z,48.88
2022-11-22T04:51:43.272Z,49.87
2022-11-22T04:54:09.886Z,51.33
2022-11-22T04:56:36.536Z,52.89
2022-11-22T04:59:03.550Z,54.83
2022-11-22T05:01:30.317Z,56.59
2022-11-22T05:03:57.071Z,58.11
2022-11-22T05:06:23.741Z,59.59
2022-11-22T05:08:50.353Z,61.22
2022-11-22T05:11:19.512Z,62.35
2022-11-22T05:13:48.790Z,64.12
2022-11-22T05:16:18.568Z,65.13
2022-11-22T05:18:59.093Z,65.76
2022-11-22T05:21:27.715Z,67.37
2022-11-22T05:23:54.989Z,69.58
2022-11-22T05:26:26.775Z,71.16
2022-11-22T05:28:53.719Z,73.07
2022-11-22T05:31:25.364Z,75.69
2022-11-22T05:33:55.333Z,77.82
2022-11-22T05:36:22.783Z,78.92
2022-11-22T05:38:49.853Z,80.75
2022-11-22T05:41:17.086Z,81.57
2022-11-22T05:43:44.029Z,82.83
2022-11-22T05:46:24.415Z,84.77
2022-11-22T05:48:52.751Z,85.70
2022-11-22T05:51:21.455Z,86.25
2022-11-22T05:53:48.162Z,88.00
2022-11-22T05:56:22.947Z,89.24
2022-11-22T05:58:50.382Z,90.97
2022-11-22T06:01:19.488Z,92.03
2022-11-22T06:03:46.391Z,94.13
2022-11-22T06:06:13.482Z,95.98
2022-11-22T06:08:41.320Z,96.79
2022-11-22T06:11:09.623Z,99.26
2022-11-22T06:13:37.459Z,100.00
2022-11-22T06:16:05.049Z,100.00
2022-11-22T06:18:31.979Z,100.00
2022-11-22T06:21:04.669Z,100.00
2022-11-22T06:23:31.590Z,100.00
2022-11-22T06:25:59.760Z,100.00
2022-11-22T06:28:27.449Z,100.00
2022-11-22T06:30:54.049Z,100.00
2022-11-22T06:33:21.071Z,100.00
2022-11-22T06:35:47.733Z,100.00
2022-11-22T06:38:14.380Z,100.00
2022-11-22T06:40:41.320Z,100.00
2022-11-22T06:43:07.979Z,100.00
2022-11-22T06:45:34.563Z,100.00
2022-11-22T06:48:01.234Z,100.00
2022-11-22T06:50:27.848Z,100.00
2022-11-22T06:52:54.479Z,100.00
2022-11-22T06:55:49.004Z,100.00
2022-11-22T06:58:07.867Z,100.00
2022-11-22T07:00:34.453Z,100.00
2022-11-22T07:03:01.083Z,100.00
2022-11-22T07:05:27.755Z,100.00
2022-11-22T07:07:56.768Z,100.00
2022-11-22T07:10:27.816Z,100.00
2022-11-22T07:12:54.377Z,100.00
2022-11-22T07:15:28.404Z,100.00
2022-11-22T07:17:54.988Z,100.00
2022-11-22T07:20:21.613Z,100.00
2022-11-22T07:22:48.263Z,100.00
2022-11-22T07:25:14.948Z,100.00
2022-11-22T07:27:41.574Z,100.00
2022-11-22T07:30:08.885Z,100.00
2022-11-22T07:32:35.553Z,100.00
2022-11-22T07:35:09.407Z,100.00
2022-11-22T07:37:39.047Z,96.87
2022-11-22T07:40:06.380Z,91.85
2022-11-22T07:42:37.767Z,89.63
2022-11-22T07:45:07.944Z,88.67
2022-11-22T07:47:37.597Z,88.46
2022-11-22T07:50:06.820Z,86.49
2022-11-22T07:52:40.111Z,84.94
2022-11-22T07:55:12.535Z,82.86
2022-11-22T07:57:40.688Z,79.34
2022-11-22T08:00:07.898Z,77.12
2022-11-22T08:02:34.497Z,75.73
2022-11-22T08:05:01.923Z,73.43
2022-11-22T08:07:28.564Z,71.45
2022-11-22T08:09:55.248Z,69.21
2022-11-22T08:12:23.065Z,67.46
2022-11-22T08:14:52.623Z,66.48
2022-11-22T08:17:19.213Z,64.10
2022-11-22T08:19:45.979Z,62.83
2022-11-22T08:22:12.624Z,61.92
2022-11-22T08:24:45.861Z,60.95
2022-11-22T08:27:12.626Z,58.52
2022-11-22T08:29:39.243Z,56.96
2022-11-22T08:32:06.120Z,56.09
2022-11-22T08:34:32.706Z,55.17
2022-11-22T08:37:01.510Z,54.69
2022-11-22T08:39:28.278Z,53.09
2022-11-22T08:41:55.020Z,52.97
2022-11-22T08:44:21.738Z,51.47
2022-11-22T08:46:48.380Z,50.68
2022-11-22T08:49:16.993Z,50.23
2022-11-22T08:51:46.794Z,49.39
2022-11-22T08:54:17.264Z,48.49
2022-11-22T08:56:43.966Z,47.57
2022-11-22T08:59:12.693Z,45.98
2022-11-22T09:01:39.455Z,45.17
2022-11-22T09:04:06.139Z,44.64
2022-11-22T09:09:36.853Z,41.89
2022-11-22T09:12:04.834Z,40.22
2022-11-22T09:14:31.392Z,38.89
2022-11-22T09:16:58.116Z,37.08
2022-11-22T09:19:24.817Z,36.42
2022-11-22T09:21:51.449Z,34.45
2022-11-22T09:24:17.991Z,33.13
2022-11-22T09:26:44.674Z,31.38
2022-11-22T09:29:12.784Z,30.54
2022-11-22T09:31:46.792Z,29.43
2022-11-22T09:34:17.906Z,28.47
2022-11-22T09:36:52.050Z,27.39
2022-11-22T09:39:18.694Z,26.26
2022-11-22T09:41:48.394Z,25.08
2022-11-22T09:44:36.841Z,23.82
2022-11-22T09:47:28.370Z,20.84
2022-11-22T09:50:00.906Z,19.43
2022-11-22T09:52:32.713Z,17.16
2022-11-22T09:55:04.821Z,13.84
2022-11-22T09:57:38.584Z,12.67
2022-11-22T10:00:08.085Z,11.23
2022-11-22T10:03:01.085Z,9.03
2022-11-22T10:05:33.676Z,7.21
2022-11-22T10:08:19.034Z,5.33
2022-11-22T10:10:45.841Z,4.31
2022-11-22T10:13:24.247Z,2.59
2022-11-22T10:15:57.059Z,1.57
2022-11-22T10:18:34.610Z,2.33
2022-11-22T10:21:01.184Z,2.00
2022-11-22T10:23:27.797Z,1.37
2022-11-22T10:26:06.206Z,2.34
2022-11-22T10:28:36.930Z,2.10
2022-11-22T10:31:17.020Z,1.78
2022-11-22T10:34:03.475Z,0.39
2022-11-22T10:36:43.215Z,0.00
2022-11-22T10:39:38.016Z,0.00
2022-11-22T10:42:23.154Z,0.00
2022-11-22T10:45:01.964Z,0.00
2022-11-22T10:47:40.789Z,0.00
2022-11-22T10:50:17.948Z,0.00
2022-11-22T10:53:09.414Z,0.00
2022-11-22T10:55:54.826Z,0.00
2022-11-22T10:58:35.945Z,0.00
2022-11-22T11:01:11.889Z,0.00
2022-11-22T11:03:40.733Z,0.00
2022-11-22T11:06:24.363Z,0.00
2022-11-22T11:11:46.098Z,0.00
2022-11-22T11:14:30.556Z,0.00
2022-11-22T11:16:58.157Z,0.00
2022-11-22T11:19:25.606Z,0.00
2022-11-22T11:22:42.684Z,0.00
2022-11-22T11:25:31.604Z,0.00
2022-11-22T11:28:03.020Z,0.00
2022-11-22T11:30:47.397Z,0.00
2022-11-22T11:33:20.220Z,0.00
2022-11-22T11:35:47.462Z,0.00
2022-11-22T11:38:27.882Z,0.00
2022-11-22T11:40:54.501Z,0.00
2022-11-22T11:43:23.135Z,0.00
2022-11-22T11:45:49.952Z,0.00
2022-11-22T11:48:28.283Z,0.00
2022-11-22T11:51:18.067Z,0.00
2022-11-22T11:53:55.569Z,0.00
2022-11-22T11:56:34.839Z,0.00
2022-11-22T11:59:07.163Z,0.00
2022-11-22T12:01:38.729Z,0.00
2022-11-22T12:04:07.298Z,0.00
2022-11-22T12:06:34.197Z,0.00
2022-11-22T12:09:01.895Z,0.00
2022-11-22T12:11:43.073Z,0.00
2022-11-22T12:14:20.019Z,0.00
2022-11-22T12:16:48.242Z,0.00
2022-11-22T12:19:21.738Z,0.00
2022-11-22T12:22:03.862Z,0.00
2022-11-22T12:24:52.222Z,0.00
2022-11-22T12:27:22.118Z,0.00
2022-11-22T12:29:48.928Z,0.00
2022-11-22T12:32:32.695Z,0.00
2022-11-22T12:35:06.399Z,0.00
2022-11-22T12:37:44.857Z,0.00
2022-11-22T12:40:21.304Z,0.00
2022-11-22T12:42:50.726Z,0.00
2022-11-22T12:45:42.764Z,0.00
2022-11-22T12:48:16.700Z,0.00
2022-11-22T12:50:46.821Z,0.00
2022-11-22T12:53:16.127Z,0.00
2022-11-22T12:56:00.358Z,0.00
2022-11-22T12:58:45.244Z,0.00
2022-11-22T13:01:11.745Z,0.00
2022-11-22T13:04:24.582Z,0.00
2022-11-22T13:07:11.233Z,0.00
2022-11-22T13:09:42.000Z,0.00
2022-11-22T13:12:14.156Z,0.00
2022-11-22T13:14:55.369Z,0.00
2022-11-22T13:17:59.611Z,0.00
2022-11-22T13:21:01.403Z,0.00
2022-11-22T13:23:53.598Z,0.00
2022-11-22T13:26:48.729Z,0.00
2022-11-22T13:29:47.516Z,0.00
2022-11-22T13:32:42.154Z,0.00
2022-11-22T13:35:21.529Z,0.00
2022-11-22T13:38:28.772Z,0.00
2022-11-22T13:41:51.025Z,0.00
2022-11-22T13:44:41.103Z,0.00
2022-11-22T13:47:14.241Z,0.00
2022-11-22T13:49:48.873Z,0.00
2022-11-22T13:52:25.204Z,0.00
2022-11-22T13:55:42.139Z,0.00
2022-11-22T13:58:46.314Z,0.00
2022-11-22T14:01:45.188Z,0.00
2022-11-22T14:04:33.033Z,0.00
2022-11-22T14:07:33.427Z,0.00
2022-11-22T14:13:58.762Z,0.00
2022-11-22T14:17:12.589Z,0.00
2022-11-22T14:20:16.469Z,0.00
2022-11-22T14:23:34.801Z,0.00
2022-11-22T14:27:06.160Z,0.00
2022-11-22T14:30:25.136Z,0.00
2022-11-22T14:33:50.082Z,0.00
2022-11-22T14:36:39.818Z,0.00
2022-11-22T14:42:49.400Z,0.00
2022-11-22T14:49:02.992Z,0.00
2022-11-22T14:51:38.900Z,0.00
2022-11-22T14:55:15.416Z,0.00
2022-11-22T14:58:30.318Z,0.00
2022-11-22T15:09:20.998Z,0.00
2022-11-22T15:12:25.944Z,0.00
2022-11-22T15:58:06.143Z,0.00
2022-11-22T16:03:44.606Z,0.00
2022-11-22T16:06:24.014Z,0.00
2022-11-22T16:13:40.058Z,0.00
2022-11-22T16:17:21.446Z,0.00
2022-11-22T16:20:33.504Z,0.00
2022-11-22T16:23:09.736Z,0.00
2022-11-22T16:25:50.694Z,0.00
2022-11-22T16:28:38.905Z,0.00
2022-11-22T16:33:09.090Z,0.00
2022-11-22T16:34:47.022Z,0.00
2022-11-22T16:37:49.265Z,0.00
2022-11-22T16:40:21.978Z,0.00
2022-11-22T16:43:04.233Z,0.00
2022-11-22T16:45:43.463Z,0.00
2022-11-22T16:48:33.549Z,0.00
2022-11-22T16:51:25.585Z,0.00
2022-11-22T16:54:05.016Z,0.00
2022-11-22T16:56:53.087Z,0.00
2022-11-22T16:59:24.955Z,0.00
2022-11-22T17:02:03.555Z,0.00
2022-11-22T17:04:41.136Z,0.00
2022-11-22T17:10:19.015Z,0.00
2022-11-22T17:13:02.064Z,0.00
2022-11-22T17:19:45.659Z,0.00
2022-11-22T17:25:39.937Z,0.00
2022-11-22T17:28:31.714Z,0.00
2022-11-22T17:31:05.321Z,0.00
2022-11-22T17:33:38.683Z,0.00
2022-11-22T17:36:25.192Z,0.00
2022-11-22T17:39:06.602Z,0.00
2022-11-22T17:44:41.893Z,0.00
2022-11-22T17:47:51.239Z,0.00
2022-11-22T17:50:20.790Z,0.00
2022-11-22T17:52:56.088Z,0.00
2022-11-22T17:55:26.356Z,0.00
2022-11-22T17:58:15.835Z,0.00
2022-11-22T18:01:10.824Z,0.00
2022-11-22T18:03:38.635Z,0.00
2022-11-22T18:09:03.568Z,0.00
2022-11-22T18:11:33.547Z,0.00
2022-11-22T18:14:11.931Z,0.00
2022-11-22T18:19:32.860Z,0.00
2022-11-22T18:22:15.361Z,0.00
2022-11-22T18:24:58.284Z,0.00
2022-11-22T18:27:44.650Z,0.00
2022-11-22T18:30:15.345Z,0.00
2022-11-22T18:32:44.861Z,0.00
2022-11-22T18:35:29.178Z,0.00
2022-11-22T18:39:07.632Z,0.00
2022-11-22T18:44:35.585Z,0.00
2022-11-22T18:53:52.010Z,0.00
2022-11-22T18:56:27.484Z,0.00
2022-11-22T18:58:59.971Z,0.00
2022-11-22T19:01:39.405Z,0.00
2022-11-22T19:04:12.048Z,0.00
2022-11-22T19:12:49.971Z,0.00
2022-11-22T19:15:26.999Z,0.00
2022-11-22T19:18:10.937Z,0.00
2022-11-22T19:21:07.689Z,0.00
2022-11-22T19:23:39.585Z,0.00
2022-11-22T19:26:27.646Z,0.00
2022-11-22T19:29:06.766Z,0.00
2022-11-22T19:34:36.532Z,0.00
2022-11-22T19:40:51.162Z,0.00
2022-11-22T19:43:41.463Z,0.00
2022-11-22T19:46:08.160Z,0.00
2022-11-22T19:48:53.644Z,0.00
2022-11-22T19:51:33.520Z,0.00
2022-11-22T19:54:23.804Z,0.00
2022-11-22T19:57:06.143Z,0.00
2022-11-22T20:02:54.683Z,0.00
2022-11-22T20:05:26.997Z,0.00
2022-11-22T20:08:14.960Z,0.00
2022-11-22T20:11:06.971Z,0.00
2022-11-22T20:13:49.917Z,0.00
2022-11-22T20:20:19.192Z,0.00
2022-11-22T20:23:17.170Z,0.00
2022-11-22T20:25:48.269Z,0.00
2022-11-22T20:28:54.898Z,0.00
2022-11-22T20:31:34.548Z,0.00
2022-11-22T20:34:11.625Z,0.00
2022-11-22T20:36:39.139Z,0.00
2022-11-22T20:39:10.768Z,0.00
2022-11-22T20:41:41.706Z,0.00
2022-11-22T20:44:15.157Z,0.00
2022-11-22T20:47:11.938Z,0.00
2022-11-22T20:55:59.135Z,0.00
2022-11-22T20:58:37.179Z,0.00
2022-11-22T21:01:20.219Z,0.00
2022-11-22T21:04:01.778Z,0.00
2022-11-22T21:06:28.925Z,0.00
2022-11-22T21:12:24.492Z,0.00
2022-11-22T21:15:06.361Z,0.00
2022-11-22T21:18:23.642Z,0.00
2022-11-22T21:21:23.479Z,0.00
2022-11-22T21:24:32.420Z,0.00
2022-11-22T21:27:19.777Z,0.00
2022-11-22T21:33:21.701Z,0.00
2022-11-22T21:36:26.545Z,0.00
2022-11-22T21:39:00.775Z,0.00
2022-11-22T21:43:37.903Z,0.00
2022-11-22T21:45:40.222Z,0.00
2022-11-22T21:48:37.580Z,0.00
2022-11-22T22:01:35.114Z,0.00
2022-11-22T22:04:51.386Z,0.00
2022-11-22T22:07:53.453Z,0.00
2022-11-22T22:11:13.633Z,0.00
2022-11-22T22:13:50.410Z,0.00
2022-11-22T22:16:54.006Z,0.00
2022-11-22T22:19:23.896Z,0.00
2022-11-22T22:21:57.295Z,0.00
2022-11-22T22:27:44.759Z,0.00
2022-11-22T22:30:17.681Z,0.00
2022-11-22T22:33:11.465Z,0.00
2022-11-22T22:36:04.623Z,0.00
2022-11-22T22:44:30.111Z,0.00
2022-11-22T22:47:02.049Z,0.00
2022-11-22T22:50:12.214Z,0.00
2022-11-22T22:52:44.408Z,0.00
2022-11-22T22:58:55.191Z,0.00
2022-11-22T23:01:54.540Z,0.00
2022-11-22T23:04:24.548Z,0.00
2022-11-22T23:06:59.925Z,0.00
2022-11-22T23:16:37.724Z,0.00
2022-11-22T23:19:23.415Z,0.00
2022-11-22T23:22:03.510Z,0.00
2022-11-22T23:25:13.644Z,0.00
2022-11-22T23:34:03.930Z,0.00
2022-11-22T23:37:23.607Z,0.00
2022-11-22T23:40:01.658Z,0.00
2022-11-22T23:43:08.614Z,0.00
2022-11-22T23:49:10.115Z,0.00
2022-11-22T23:52:08.039Z,0.00
2022-11-22T23:54:50.968Z,0.00
2022-11-22T23:57:41.017Z,0.00
